createdAt,value
2023-05-24T00:01:57.023Z,10.20
2023-05-24T00:04:30.189Z,10.11
2023-05-24T00:06:58.612Z,10.06
2023-05-24T00:09:26.702Z,10.25
2023-05-24T00:11:54.983Z,10.23
2023-05-24T00:14:23.136Z,10.10
2023-05-24T00:16:52.828Z,9.98
2023-05-24T00:19:23.049Z,9.85
2023-05-24T00:21:51.358Z,9.83
2023-05-24T00:24:19.914Z,9.70
2023-05-24T00:26:48.478Z,9.65
2023-05-24T00:29:16.609Z,9.75
2023-05-24T00:31:44.840Z,9.69
2023-05-24T00:34:14.448Z,9.66
2023-05-24T00:36:42.784Z,9.62
2023-05-24T00:39:11.851Z,9.60
2023-05-24T00:41:39.995Z,9.50
2023-05-24T00:44:10.955Z,9.42
2023-05-24T00:46:39.948Z,9.36
2023-05-24T00:49:08.744Z,9.30
2023-05-24T00:51:38.648Z,9.22
2023-05-24T00:54:07.833Z,9.19
2023-05-24T00:56:36.507Z,9.11
2023-05-24T00:59:05.137Z,9.04
2023-05-24T01:01:35.277Z,9.01
2023-05-24T01:04:04.394Z,8.96
2023-05-24T01:06:40.810Z,8.91
2023-05-24T01:09:21.791Z,8.84
2023-05-24T01:12:05.372Z,8.80
2023-05-24T01:14:42.972Z,8.82
2023-05-24T01:17:20.650Z,8.82
2023-05-24T01:19:55.491Z,8.98
2023-05-24T01:22:45.275Z,9.33
2023-05-24T01:25:20.277Z,9.38
2023-05-24T01:27:50.488Z,9.55
2023-05-24T01:30:19.329Z,9.53
2023-05-24T01:32:47.701Z,9.38
2023-05-24T01:35:16.291Z,9.39
2023-05-24T01:37:45.375Z,9.48
2023-05-24T01:40:14.501Z,9.77
2023-05-24T01:42:49.211Z,9.74
2023-05-24T01:45:24.406Z,9.63
2023-05-24T01:48:18.985Z,9.65
2023-05-24T01:50:50.533Z,9.58
2023-05-24T01:53:21.333Z,9.51
2023-05-24T01:55:50.601Z,9.33
2023-05-24T01:58:22.546Z,9.41
2023-05-24T02:00:53.218Z,9.37
2023-05-24T02:03:22.750Z,9.30
2023-05-24T02:05:51.295Z,9.28
2023-05-24T02:08:19.561Z,9.13
2023-05-24T02:10:48.050Z,9.04
2023-05-24T02:13:18.274Z,9.00
2023-05-24T02:15:47.760Z,8.92
2023-05-24T02:18:19.089Z,8.87
2023-05-24T02:20:47.540Z,8.85
2023-05-24T02:23:16.203Z,8.81
2023-05-24T02:25:44.724Z,8.83
2023-05-24T02:28:13.225Z,8.90
2023-05-24T02:30:44.769Z,8.89
2023-05-24T02:33:13.269Z,8.92
2023-05-24T02:35:42.969Z,8.95
2023-05-24T02:38:11.002Z,9.00
2023-05-24T02:40:39.586Z,9.09
2023-05-24T02:43:10.636Z,9.09
2023-05-24T02:45:38.780Z,9.18
2023-05-24T02:48:07.436Z,9.18
2023-05-24T02:50:36.907Z,9.18
2023-05-24T02:53:06.896Z,9.20
2023-05-24T02:55:35.084Z,9.23
2023-05-24T02:58:03.503Z,9.33
2023-05-24T03:00:33.284Z,9.37
2023-05-24T03:03:03.268Z,9.38
2023-05-24T03:05:31.705Z,9.38
2023-05-24T03:07:59.842Z,9.35
2023-05-24T03:10:30.048Z,9.34
2023-05-24T03:12:58.248Z,9.27
2023-05-24T03:15:26.901Z,9.24
2023-05-24T03:17:56.943Z,9.29
2023-05-24T03:20:25.893Z,9.27
2023-05-24T03:22:54.310Z,9.23
2023-05-24T03:25:22.850Z,9.19
2023-05-24T03:27:52.374Z,9.12
2023-05-24T03:30:22.082Z,9.14
2023-05-24T03:32:56.719Z,9.16
2023-05-24T03:35:25.197Z,9.22
2023-05-24T03:37:54.597Z,9.24
2023-05-24T03:40:23.125Z,9.26
2023-05-24T03:42:59.204Z,9.28
2023-05-24T03:45:41.599Z,9.31
2023-05-24T03:48:09.735Z,9.30
2023-05-24T03:50:37.862Z,9.27
2023-05-24T03:53:06.546Z,9.24
2023-05-24T03:55:35.332Z,9.30
2023-05-24T03:58:04.871Z,9.35
2023-05-24T04:00:33.043Z,9.31
2023-05-24T04:03:01.982Z,9.32
2023-05-24T04:05:30.829Z,9.32
2023-05-24T04:07:59.770Z,9.48
2023-05-24T04:10:28.325Z,9.56
2023-05-24T04:12:57.502Z,9.47
2023-05-24T04:15:27.057Z,9.41
2023-05-24T04:17:55.910Z,9.44
2023-05-24T04:20:25.586Z,9.47
2023-05-24T04:22:54.181Z,9.42
2023-05-24T04:25:22.769Z,9.32
2023-05-24T04:27:51.043Z,9.31
2023-05-24T04:30:19.554Z,9.33
2023-05-24T04:32:49.468Z,9.56
2023-05-24T04:35:17.885Z,9.53
2023-05-24T04:37:48.370Z,9.64
2023-05-24T04:40:18.009Z,9.63
2023-05-24T04:42:46.471Z,9.70
2023-05-24T04:45:14.628Z,9.73
2023-05-24T04:47:43.487Z,9.69
2023-05-24T04:50:13.520Z,9.65
2023-05-24T04:52:41.755Z,9.69
2023-05-24T04:55:11.238Z,9.84
2023-05-24T04:57:39.678Z,9.77
2023-05-24T05:00:10.594Z,9.75
2023-05-24T05:02:39.041Z,9.81
2023-05-24T05:05:07.942Z,9.77
2023-05-24T05:07:38.426Z,9.72
2023-05-24T05:10:07.986Z,9.82
2023-05-24T05:12:36.496Z,10.01
2023-05-24T05:15:05.154Z,10.03
2023-05-24T05:17:33.471Z,10.09
2023-05-24T05:20:01.899Z,10.13
2023-05-24T05:22:31.315Z,10.38
2023-05-24T05:25:01.284Z,10.33
2023-05-24T05:27:31.214Z,10.49
2023-05-24T05:29:59.521Z,10.41
2023-05-24T05:32:27.835Z,10.41
2023-05-24T05:34:56.012Z,10.44
2023-05-24T05:37:24.195Z,10.37
2023-05-24T05:39:53.611Z,10.36
2023-05-24T05:42:23.925Z,10.59
2023-05-24T05:44:52.599Z,10.51
2023-05-24T05:47:21.011Z,10.58
2023-05-24T05:49:49.435Z,10.69
2023-05-24T05:52:17.911Z,10.57
2023-05-24T05:54:46.280Z,10.52
2023-05-24T05:57:16.291Z,10.72
2023-05-24T05:59:46.060Z,10.88
2023-05-24T06:02:14.095Z,10.89
2023-05-24T06:04:42.539Z,10.80
2023-05-24T06:07:10.994Z,10.82
2023-05-24T06:09:39.426Z,10.89
2023-05-24T06:12:07.830Z,10.92
2023-05-24T06:14:38.247Z,10.88
2023-05-24T06:17:11.768Z,11.00
2023-05-24T06:19:40.316Z,11.16
2023-05-24T06:22:08.461Z,11.39
2023-05-24T06:24:36.963Z,11.48
2023-05-24T06:27:05.942Z,11.70
2023-05-24T06:29:34.134Z,11.96
2023-05-24T06:32:02.428Z,12.08
2023-05-24T06:34:32.392Z,12.10
2023-05-24T06:37:00.696Z,12.24
2023-05-24T06:39:29.067Z,12.31
2023-05-24T06:41:57.575Z,12.66
2023-05-24T06:44:32.186Z,12.78
2023-05-24T06:47:00.568Z,13.13
2023-05-24T06:49:28.855Z,13.16
2023-05-24T06:51:58.346Z,12.90
2023-05-24T06:54:27.140Z,13.19
2023-05-24T06:56:55.788Z,13.05
2023-05-24T06:59:24.202Z,13.12
2023-05-24T07:01:57.936Z,13.33
2023-05-24T07:04:28.441Z,13.37
2023-05-24T07:06:58.708Z,13.31
2023-05-24T07:09:27.096Z,13.62
2023-05-24T07:11:55.900Z,13.48
2023-05-24T07:14:25.962Z,13.28
2023-05-24T07:16:57.432Z,13.21
2023-05-24T07:19:29.197Z,13.18
2023-05-24T07:21:59.095Z,13.59
2023-05-24T07:24:27.218Z,14.01
2023-05-24T07:26:57.020Z,14.20
2023-05-24T07:29:26.404Z,14.42
2023-05-24T07:31:57.981Z,14.63
2023-05-24T07:34:28.237Z,14.56
2023-05-24T07:36:56.766Z,14.62
2023-05-24T07:39:27.243Z,14.57
2023-05-24T07:41:56.743Z,15.28
2023-05-24T07:44:25.381Z,15.45
2023-05-24T07:46:55.013Z,15.48
2023-05-24T07:49:23.827Z,15.55
2023-05-24T07:51:52.014Z,16.04
2023-05-24T07:54:20.155Z,15.90
2023-05-24T07:56:49.674Z,15.53
2023-05-24T07:59:18.126Z,15.75
2023-05-24T08:01:48.344Z,16.04
2023-05-24T08:04:16.964Z,16.70
2023-05-24T08:06:46.614Z,16.52
2023-05-24T08:09:17.283Z,16.55
2023-05-24T08:11:46.435Z,16.46
2023-05-24T08:14:16.227Z,16.27
2023-05-24T08:16:44.571Z,15.93
2023-05-24T08:19:12.945Z,16.23
2023-05-24T08:21:43.045Z,15.89
2023-05-24T08:24:11.787Z,15.94
2023-05-24T08:26:40.458Z,16.11
2023-05-24T08:29:08.712Z,16.07
2023-05-24T08:31:38.499Z,16.30
2023-05-24T08:34:07.028Z,16.31
2023-05-24T08:36:35.955Z,16.85
2023-05-24T08:39:04.944Z,16.91
2023-05-24T08:41:37.362Z,16.79
2023-05-24T08:44:07.735Z,17.10
2023-05-24T08:46:38.398Z,17.34
2023-05-24T08:49:09.160Z,16.71
2023-05-24T08:51:38.606Z,16.69
2023-05-24T08:54:07.781Z,17.18
2023-05-24T08:56:36.136Z,17.02
2023-05-24T08:59:04.617Z,17.08
2023-05-24T09:01:34.769Z,17.36
2023-05-24T09:04:07.606Z,17.96
2023-05-24T09:06:36.036Z,17.71
2023-05-24T09:09:05.696Z,17.74
2023-05-24T09:11:35.212Z,17.75
2023-05-24T09:14:05.904Z,17.98
2023-05-24T09:16:34.294Z,18.55
2023-05-24T09:19:04.275Z,17.56
2023-05-24T09:21:34.064Z,16.90
2023-05-24T09:24:03.522Z,16.44
2023-05-24T09:26:31.795Z,16.11
2023-05-24T09:29:00.265Z,16.33
2023-05-24T09:31:35.994Z,15.91
2023-05-24T09:34:11.221Z,15.81
2023-05-24T09:36:44.016Z,15.35
2023-05-24T09:39:13.556Z,14.83
2023-05-24T09:41:44.660Z,14.76
2023-05-24T09:44:15.122Z,14.88
2023-05-24T09:46:43.331Z,15.56
2023-05-24T09:49:12.384Z,15.68
2023-05-24T09:51:41.009Z,16.43
2023-05-24T09:54:10.749Z,17.19
2023-05-24T09:56:41.930Z,17.47
2023-05-24T09:59:13.987Z,18.11
2023-05-24T10:01:42.449Z,18.31
2023-05-24T10:04:11.230Z,17.88
2023-05-24T10:06:43.559Z,18.15
2023-05-24T10:09:14.118Z,17.95
2023-05-24T10:11:43.379Z,17.65
2023-05-24T10:14:11.941Z,18.03
2023-05-24T10:16:42.522Z,17.83
2023-05-24T10:19:11.848Z,18.65
2023-05-24T10:21:43.286Z,18.90
2023-05-24T10:24:14.763Z,19.13
2023-05-24T10:26:43.397Z,18.72
2023-05-24T10:29:23.162Z,19.13
2023-05-24T10:31:54.138Z,19.66
2023-05-24T10:34:22.993Z,19.67
2023-05-24T10:36:51.681Z,19.43
2023-05-24T10:39:23.718Z,19.48
2023-05-24T10:41:53.278Z,19.18
2023-05-24T10:44:23.187Z,19.63
2023-05-24T10:47:08.054Z,19.56
2023-05-24T10:49:36.905Z,19.39
2023-05-24T10:52:09.459Z,19.49
2023-05-24T10:54:44.752Z,19.63
2023-05-24T10:57:24.747Z,19.24
2023-05-24T10:59:53.167Z,19.24
2023-05-24T11:02:22.942Z,19.46
2023-05-24T11:04:51.349Z,19.54
2023-05-24T11:07:20.894Z,19.70
2023-05-24T11:09:56.239Z,20.16
2023-05-24T11:12:31.573Z,20.12
2023-05-24T11:15:00.756Z,20.21
2023-05-24T11:17:29.502Z,20.01
2023-05-24T11:19:59.800Z,19.73
2023-05-24T11:22:29.703Z,19.43
2023-05-24T11:25:05.266Z,19.66
2023-05-24T11:27:35.397Z,20.18
2023-05-24T11:30:05.943Z,20.64
2023-05-24T11:32:34.486Z,20.41
2023-05-24T11:35:08.770Z,20.79
2023-05-24T11:37:46.414Z,21.27
2023-05-24T11:40:18.100Z,21.00
2023-05-24T11:42:47.005Z,21.08
2023-05-24T11:45:15.915Z,20.80
2023-05-24T11:47:44.047Z,20.87
2023-05-24T11:50:17.110Z,20.98
2023-05-24T11:52:45.515Z,21.47
2023-05-24T11:55:17.011Z,21.49
2023-05-24T11:57:56.022Z,21.54
2023-05-24T12:00:27.426Z,21.15
2023-05-24T12:02:58.620Z,21.69
2023-05-24T12:05:26.843Z,21.67
2023-05-24T12:08:05.869Z,21.57
2023-05-24T12:10:35.408Z,21.47
2023-05-24T12:13:05.216Z,22.34
2023-05-24T12:15:35.924Z,21.65
2023-05-24T12:18:05.922Z,21.35
2023-05-24T12:20:34.759Z,20.89
2023-05-24T12:23:02.909Z,20.69
2023-05-24T12:25:31.009Z,20.95
2023-05-24T12:27:59.300Z,21.32
2023-05-24T12:30:29.173Z,20.84
2023-05-24T12:32:58.850Z,20.63
2023-05-24T12:35:26.989Z,20.54
2023-05-24T12:38:01.143Z,21.02
2023-05-24T12:40:35.022Z,21.19
2023-05-24T12:43:05.702Z,20.99
2023-05-24T12:45:35.190Z,20.03
2023-05-24T12:48:05.328Z,20.76
2023-05-24T12:50:34.784Z,20.81
2023-05-24T12:53:03.033Z,21.09
2023-05-24T12:55:31.564Z,21.29
2023-05-24T12:58:02.670Z,20.27
2023-05-24T13:00:31.129Z,19.89
2023-05-24T13:03:01.311Z,19.94
2023-05-24T13:05:30.615Z,20.30
2023-05-24T13:07:59.646Z,20.56
2023-05-24T13:10:28.196Z,20.82
2023-05-24T13:12:57.574Z,20.89
2023-05-24T13:15:27.390Z,20.35
2023-05-24T13:17:56.265Z,20.70
2023-05-24T13:20:26.459Z,19.51
2023-05-24T13:22:54.730Z,19.63
2023-05-24T13:25:24.537Z,20.14
2023-05-24T13:27:54.293Z,20.61
2023-05-24T13:30:27.573Z,20.57
2023-05-24T13:32:56.741Z,20.08
2023-05-24T13:35:27.047Z,20.03
2023-05-24T13:37:57.969Z,19.11
2023-05-24T13:40:26.385Z,19.46
2023-05-24T13:42:57.727Z,19.48
2023-05-24T13:45:26.096Z,19.66
2023-05-24T13:47:58.397Z,19.69
2023-05-24T13:50:28.024Z,19.93
2023-05-24T13:52:56.398Z,20.08
2023-05-24T13:55:24.852Z,19.19
2023-05-24T13:57:53.083Z,18.77
2023-05-24T14:00:22.029Z,18.64
2023-05-24T14:02:52.027Z,19.15
2023-05-24T14:07:54.172Z,19.77
2023-05-24T14:10:23.581Z,20.11
2023-05-24T14:13:12.822Z,20.23
2023-05-24T14:15:42.301Z,19.67
2023-05-24T14:18:11.014Z,19.75
2023-05-24T14:20:40.874Z,19.85
2023-05-24T14:23:11.309Z,20.08
2023-05-24T14:25:39.833Z,20.08
2023-05-24T14:28:08.921Z,19.49
2023-05-24T14:30:39.107Z,18.97
2023-05-24T14:33:08.253Z,18.41
2023-05-24T14:35:39.923Z,18.46
2023-05-24T14:38:11.504Z,18.57
2023-05-24T14:40:41.142Z,19.58
2023-05-24T14:43:10.872Z,19.76
2023-05-24T14:45:41.386Z,19.25
2023-05-24T14:48:11.583Z,19.74
2023-05-24T14:50:40.195Z,20.32
2023-05-24T14:53:12.325Z,20.36
2023-05-24T14:55:44.662Z,20.50
2023-05-24T14:58:13.682Z,20.07
2023-05-24T15:00:43.854Z,20.16
2023-05-24T15:03:14.561Z,20.04
2023-05-24T15:05:43.217Z,19.74
2023-05-24T15:08:13.045Z,19.79
2023-05-24T15:10:43.751Z,19.21
2023-05-24T15:13:12.198Z,19.28
2023-05-24T15:15:40.685Z,19.09
2023-05-24T15:18:09.840Z,19.51
2023-05-24T15:20:38.758Z,20.01
2023-05-24T15:23:10.498Z,19.79
2023-05-24T15:25:40.994Z,18.79
2023-05-24T15:28:10.634Z,18.59
2023-05-24T15:30:39.160Z,18.17
2023-05-24T15:33:07.981Z,17.70
2023-05-24T15:35:36.460Z,17.49
2023-05-24T15:38:04.901Z,17.34
2023-05-24T15:40:33.675Z,17.10
2023-05-24T15:43:03.795Z,17.11
2023-05-24T15:45:32.202Z,17.05
2023-05-24T15:48:00.324Z,17.14
2023-05-24T15:50:45.611Z,17.37
2023-05-24T15:53:18.704Z,17.36
2023-05-24T15:55:49.422Z,17.37
2023-05-24T15:58:19.338Z,17.39
2023-05-24T16:00:48.845Z,17.57
2023-05-24T16:03:17.285Z,17.66
2023-05-24T16:05:48.881Z,17.84
2023-05-24T16:08:18.275Z,18.12
2023-05-24T16:10:46.641Z,18.38
2023-05-24T16:13:15.149Z,18.18
2023-05-24T16:15:51.224Z,18.33
2023-05-24T16:18:21.419Z,18.45
2023-05-24T16:20:51.277Z,18.43
2023-05-24T16:23:22.765Z,18.58
2023-05-24T16:25:51.454Z,19.00
2023-05-24T16:28:23.783Z,19.22
2023-05-24T16:30:55.956Z,19.02
2023-05-24T16:33:25.032Z,18.61
2023-05-24T16:35:56.511Z,18.36
2023-05-24T16:38:26.386Z,18.42
2023-05-24T16:40:55.100Z,18.20
2023-05-24T16:43:23.719Z,18.24
2023-05-24T16:45:55.129Z,18.08
2023-05-24T16:48:28.894Z,18.04
2023-05-24T16:50:58.507Z,17.90
2023-05-24T16:53:27.836Z,17.99
2023-05-24T16:55:58.220Z,17.98
2023-05-24T16:58:28.769Z,17.82
2023-05-24T17:00:58.970Z,17.67
2023-05-24T17:03:29.277Z,17.40
2023-05-24T17:06:03.535Z,17.59
2023-05-24T17:08:34.339Z,17.57
2023-05-24T17:11:04.531Z,17.43
2023-05-24T17:13:33.270Z,17.08
2023-05-24T17:16:04.078Z,17.51
2023-05-24T17:18:32.695Z,17.56
2023-05-24T17:21:04.524Z,17.53
2023-05-24T17:23:34.636Z,17.53
2023-05-24T17:26:04.501Z,17.19
2023-05-24T17:28:34.837Z,17.03
2023-05-24T17:31:04.569Z,17.16
2023-05-24T17:33:33.034Z,17.06
2023-05-24T17:36:04.125Z,17.05
2023-05-24T17:38:33.938Z,16.96
2023-05-24T17:41:02.362Z,16.92
2023-05-24T17:43:32.892Z,16.85
2023-05-24T17:46:06.289Z,16.93
2023-05-24T17:48:37.743Z,16.86
2023-05-24T17:51:08.548Z,16.82
2023-05-24T17:53:38.325Z,16.79
2023-05-24T17:56:08.065Z,16.74
2023-05-24T17:58:37.942Z,16.80
2023-05-24T18:01:07.721Z,16.58
2023-05-24T18:03:38.722Z,16.42
2023-05-24T18:06:08.200Z,16.17
2023-05-24T18:08:38.684Z,16.20
2023-05-24T18:11:10.145Z,16.20
2023-05-24T18:13:40.006Z,16.11
2023-05-24T18:16:10.003Z,15.93
2023-05-24T18:18:39.680Z,16.06
2023-05-24T18:21:10.527Z,15.94
2023-05-24T18:23:40.190Z,15.89
2023-05-24T18:26:09.306Z,15.88
2023-05-24T18:28:38.333Z,15.82
2023-05-24T18:31:08.341Z,15.75
2023-05-24T18:33:36.918Z,15.67
2023-05-24T18:36:07.368Z,15.71
2023-05-24T18:38:36.417Z,15.56
2023-05-24T18:41:06.515Z,15.63
2023-05-24T18:43:36.979Z,15.47
2023-05-24T18:46:06.209Z,15.45
2023-05-24T18:48:34.468Z,15.29
2023-05-24T18:51:05.164Z,15.41
2023-05-24T18:53:35.128Z,15.42
2023-05-24T18:56:03.642Z,15.23
2023-05-24T18:58:31.921Z,15.12
2023-05-24T19:01:00.173Z,15.09
2023-05-24T19:03:28.795Z,14.93
2023-05-24T19:05:57.318Z,14.83
2023-05-24T19:08:25.660Z,14.83
2023-05-24T19:10:55.235Z,14.71
2023-05-24T19:13:23.385Z,14.62
2023-05-24T19:15:53.663Z,14.60
2023-05-24T19:18:21.886Z,14.59
2023-05-24T19:20:50.312Z,14.34
2023-05-24T19:23:18.508Z,14.29
2023-05-24T19:25:50.036Z,14.20
2023-05-24T19:28:20.235Z,14.11
2023-05-24T19:30:48.487Z,14.00
2023-05-24T19:33:16.970Z,13.97
2023-05-24T19:35:45.290Z,14.09
2023-05-24T19:38:17.485Z,14.03
2023-05-24T19:40:46.263Z,13.86
2023-05-24T19:43:15.841Z,13.89
2023-05-24T19:45:46.121Z,13.83
2023-05-24T19:48:14.593Z,13.80
2023-05-24T19:50:42.804Z,13.60
2023-05-24T19:53:11.011Z,13.69
2023-05-24T19:55:39.477Z,13.58
2023-05-24T19:58:08.894Z,13.45
2023-05-24T20:00:37.210Z,13.51
2023-05-24T20:03:07.295Z,13.51
2023-05-24T20:05:35.820Z,13.39
2023-05-24T20:08:04.119Z,13.46
2023-05-24T20:10:36.194Z,13.38
2023-05-24T20:13:04.893Z,13.43
2023-05-24T20:15:33.169Z,13.40
2023-05-24T20:18:01.929Z,13.36
2023-05-24T20:20:32.481Z,13.25
2023-05-24T20:23:00.715Z,13.20
2023-05-24T20:25:28.991Z,13.09
2023-05-24T20:27:57.568Z,13.07
2023-05-24T20:30:26.248Z,13.02
2023-05-24T20:32:54.486Z,12.96
2023-05-24T20:35:22.639Z,12.99
2023-05-24T20:37:52.516Z,13.05
2023-05-24T20:40:23.423Z,12.98
2023-05-24T20:42:51.853Z,13.02
2023-05-24T20:45:20.248Z,13.05
2023-05-24T20:47:49.427Z,13.09
2023-05-24T20:50:18.026Z,13.09
2023-05-24T20:52:46.420Z,12.95
2023-05-24T20:55:17.826Z,12.79
2023-05-24T20:57:46.650Z,12.68
2023-05-24T21:00:15.458Z,12.63
2023-05-24T21:02:43.688Z,12.78
2023-05-24T21:05:11.999Z,12.80
2023-05-24T21:07:40.176Z,12.64
2023-05-24T21:10:10.973Z,12.50
2023-05-24T21:12:40.934Z,12.42
2023-05-24T21:15:10.978Z,12.32
2023-05-24T21:17:39.160Z,12.27
2023-05-24T21:20:08.260Z,12.28
2023-05-24T21:22:37.192Z,12.29
2023-05-24T21:25:06.859Z,12.26
2023-05-24T21:27:35.115Z,12.11
2023-05-24T21:30:05.773Z,12.10
2023-05-24T21:32:35.525Z,11.92
2023-05-24T21:35:03.507Z,11.83
2023-05-24T21:37:31.792Z,11.73
2023-05-24T21:40:01.013Z,11.69
2023-05-24T21:42:29.073Z,11.60
2023-05-24T21:44:57.223Z,11.51
2023-05-24T21:47:26.881Z,11.54
2023-05-24T21:49:55.829Z,11.41
2023-05-24T21:52:24.334Z,11.34
2023-05-24T21:54:52.499Z,11.32
2023-05-24T21:57:20.642Z,11.09
2023-05-24T21:59:48.886Z,11.02
2023-05-24T22:02:17.274Z,11.15
2023-05-24T22:04:47.224Z,11.01
2023-05-24T22:07:17.048Z,11.16
2023-05-24T22:09:46.685Z,10.88
2023-05-24T22:12:15.012Z,10.85
2023-05-24T22:14:43.610Z,10.80
2023-05-24T22:17:12.008Z,10.72
2023-05-24T22:19:41.292Z,10.57
2023-05-24T22:22:12.427Z,10.53
2023-05-24T22:24:41.033Z,10.68
2023-05-24T22:27:13.971Z,10.67
2023-05-24T22:29:42.192Z,10.63
2023-05-24T22:32:10.746Z,10.53
2023-05-24T22:34:39.473Z,10.44
2023-05-24T22:37:08.588Z,10.40
2023-05-24T22:39:40.258Z,10.53
2023-05-24T22:42:08.881Z,10.36
2023-05-24T22:44:37.174Z,10.29
2023-05-24T22:47:05.866Z,10.42
2023-05-24T22:49:34.462Z,10.22
2023-05-24T22:52:03.294Z,10.06
2023-05-24T22:54:31.833Z,10.02
2023-05-24T22:57:01.882Z,10.09
2023-05-24T22:59:32.524Z,9.99
2023-05-24T23:02:01.340Z,9.92
2023-05-24T23:04:30.163Z,9.84
2023-05-24T23:06:58.544Z,9.92
2023-05-24T23:09:34.290Z,10.01
2023-05-24T23:12:10.244Z,9.95
2023-05-24T23:14:41.704Z,10.07
2023-05-24T23:17:13.587Z,10.00
2023-05-24T23:19:43.194Z,9.74
2023-05-24T23:22:12.404Z,9.59
2023-05-24T23:24:42.214Z,9.60
2023-05-24T23:27:12.197Z,9.46
2023-05-24T23:29:40.433Z,9.31
2023-05-24T23:32:11.154Z,9.22
2023-05-24T23:34:42.475Z,9.19
2023-05-24T23:37:10.885Z,9.07
2023-05-24T23:39:41.551Z,9.02
2023-05-24T23:42:09.723Z,8.99
2023-05-24T23:44:39.492Z,8.97
2023-05-24T23:47:07.959Z,8.94
2023-05-24T23:49:36.280Z,8.93
2023-05-24T23:52:05.052Z,8.87
2023-05-24T23:54:39.586Z,8.82
2023-05-24T23:57:10.732Z,9.04
2023-05-24T23:59:40.716Z,9.25
